Time;durP1;ratioP1;P1;durP2;ratioP2;P2;SDS_P1;SDS_P2;PMS_P1;PMS_P2;Temp;Humidity;BMP_temperature;BMP_pressure;BME280_temperature;BME280_humidity;BME280_pressure;Samples;Min_cycle;Max_cycle;Signal;HPM_P1;HPM_P2
2021/09/25 00:02:40;;;;;;;14.07;7.05;;;;;;;18.51;84.57;100097.85;2957011;80;20956;-70
2021/09/25 00:06:42;;;;;;;9.75;6.50;;;;;;;18.51;84.68;100099.20;2957893;80;20940;-70
2021/09/25 00:10:47;;;;;;;7.50;5.78;;;;;;;18.54;84.70;100090.75;2936129;80;21027;-70
2021/09/25 00:14:49;;;;;;;10.00;7.37;;;;;;;18.55;84.82;100090.55;2935489;80;21045;-70
2021/09/25 00:19:11;;;;;;;10.85;6.92;;;;;;;18.53;84.94;100087.73;2915479;81;21004;-70
2021/09/25 00:23:14;;;;;;;8.93;6.58;;;;;;;18.54;85.14;100088.05;2965052;80;21073;-70
2021/09/25 00:27:16;;;;;;;9.03;7.45;;;;;;;18.57;85.11;100080.95;2968199;80;21448;-69
2021/09/25 00:31:23;;;;;;;9.40;6.87;;;;;;;18.58;85.18;100083.97;2967820;79;21018;-71
2021/09/25 00:35:32;;;;;;;8.23;6.97;;;;;;;18.60;85.23;100077.88;2968533;80;21010;-70
2021/09/25 00:39:35;;;;;;;9.18;6.67;;;;;;;18.61;85.23;100075.52;2968484;80;20986;-71
2021/09/25 00:43:43;;;;;;;11.75;7.30;;;;;;;18.65;85.27;100079.50;2968893;80;20994;-70
2021/09/25 00:47:46;;;;;;;13.17;9.63;;;;;;;18.64;85.27;100073.80;2968265;80;20982;-70
2021/09/25 00:51:49;;;;;;;10.30;7.10;;;;;;;18.64;85.41;100069.75;2967468;80;20991;-71
2021/09/25 00:55:51;;;;;;;7.85;5.50;;;;;;;18.66;85.36;100059.62;2967489;80;21064;-70
2021/09/25 00:59:53;;;;;;;8.93;6.25;;;;;;;18.68;85.39;100061.66;2964310;79;20997;-70
2021/09/25 01:03:57;;;;;;;11.15;7.50;;;;;;;18.70;85.45;100065.00;2950207;80;21053;-70
2021/09/25 01:08:01;;;;;;;7.62;6.05;;;;;;;18.74;85.46;100070.02;2950024;80;21532;-71
2021/09/25 01:12:14;;;;;;;13.53;7.30;;;;;;;18.76;85.42;100070.66;2950291;79;20967;-70
2021/09/25 01:16:16;;;;;;;7.12;6.37;;;;;;;18.74;85.26;100068.66;2950318;80;20971;-70
2021/09/25 01:20:19;;;;;;;8.03;6.30;;;;;;;18.76;85.39;100074.70;2950170;80;20986;-71
2021/09/25 01:24:23;;;;;;;9.33;6.12;;;;;;;18.80;85.51;100077.34;2950094;80;20979;-70
2021/09/25 01:28:35;;;;;;;11.38;6.97;;;;;;;18.82;85.14;100071.25;2950123;80;20970;-71
2021/09/25 01:32:39;;;;;;;6.00;5.40;;;;;;;18.82;85.11;100067.22;2950621;79;20951;-70
2021/09/25 01:36:49;;;;;;;14.78;7.20;;;;;;;18.86;85.03;100062.30;2950176;80;20979;-70
2021/09/25 01:40:51;;;;;;;7.05;5.92;;;;;;;18.87;84.79;100062.12;2950428;80;21018;-70
2021/09/25 01:45:00;;;;;;;7.00;5.40;;;;;;;18.87;84.83;100064.83;2950230;80;20911;-70
2021/09/25 01:49:02;;;;;;;8.58;6.35;;;;;;;18.83;84.88;100059.45;2950069;80;20983;-70
2021/09/25 01:53:12;;;;;;;7.00;5.55;;;;;;;18.79;85.09;100063.05;2949586;80;21014;-71
2021/09/25 01:57:14;;;;;;;8.75;5.75;;;;;;;18.82;85.05;100063.17;2950318;80;20979;-71
2021/09/25 02:01:26;;;;;;;6.97;6.12;;;;;;;18.81;84.99;100069.09;2963988;78;20960;-71
2021/09/25 02:05:28;;;;;;;6.90;6.20;;;;;;;18.86;84.90;100071.73;2977522;80;20979;-71
2021/09/25 02:09:52;;;;;;;8.05;5.50;;;;;;;18.91;84.68;100066.61;2977675;80;21026;-70
2021/09/25 02:13:53;;;;;;;7.10;6.05;;;;;;;18.89;84.69;100070.01;2977659;79;21051;-70
2021/09/25 02:17:56;;;;;;;10.72;7.08;;;;;;;18.86;84.75;100072.55;2977606;80;20908;-70
2021/09/25 02:21:59;;;;;;;10.43;7.08;;;;;;;18.88;84.80;100075.08;2977896;79;21038;-70
2021/09/25 02:26:12;;;;;;;6.55;5.67;;;;;;;18.88;84.72;100080.46;2978269;80;20990;-70
2021/09/25 02:30:16;;;;;;;7.65;6.20;;;;;;;18.87;84.70;100077.45;2958497;80;20957;-69
2021/09/25 02:34:24;;;;;;;7.85;5.97;;;;;;;18.86;84.72;100082.51;2866937;83;20991;-70
2021/09/25 02:38:28;;;;;;;7.12;6.37;;;;;;;18.86;84.75;100077.94;2866991;83;21045;-72
2021/09/25 02:42:31;;;;;;;8.68;5.97;;;;;;;18.87;84.67;100076.95;2866500;83;21289;-70
2021/09/25 02:46:34;;;;;;;6.78;5.58;;;;;;;18.88;84.59;100075.92;2866491;83;21002;-70
2021/09/25 02:50:36;;;;;;;7.75;5.85;;;;;;;18.88;84.66;100077.27;2866433;83;21053;-70
2021/09/25 02:54:38;;;;;;;8.00;5.62;;;;;;;18.89;84.67;100078.09;2866544;82;20998;-70
2021/09/25 02:58:40;;;;;;;7.28;6.05;;;;;;;18.90;84.50;100086.50;2866712;83;21050;-69
2021/09/25 03:03:02;;;;;;;7.80;6.83;;;;;;;18.87;84.52;100086.38;2866504;82;21025;-70
2021/09/25 03:07:07;;;;;;;8.00;5.87;;;;;;;18.89;84.65;100085.68;2866267;83;21092;-70
2021/09/25 03:11:20;;;;;;;9.60;5.08;;;;;;;18.89;84.31;100087.03;2866340;83;20998;-71
2021/09/25 03:15:22;;;;;;;6.22;5.65;;;;;;;18.87;84.31;100087.73;2866372;83;21017;-71
2021/09/25 03:20:18;;;;;;;7.10;5.62;;;;;;;18.87;84.33;100093.12;2866267;83;21006;-70
2021/09/25 03:24:20;;;;;;;7.67;6.17;;;;;;;18.87;84.40;100090.92;2922392;81;21000;-69
2021/09/25 03:28:23;;;;;;;9.38;6.87;;;;;;;18.88;84.53;100096.14;2938534;81;21044;-70
2021/09/25 03:32:25;;;;;;;9.40;6.35;;;;;;;18.89;84.53;100091.06;2937797;81;21294;-71
2021/09/25 03:36:31;;;;;;;7.40;6.62;;;;;;;18.91;84.54;100091.72;2938745;81;20989;-70
2021/09/25 03:40:33;;;;;;;;;;;;;;;18.93;84.47;100096.41;2940832;81;21024;-71
2021/09/25 03:45:06;;;;;;;7.47;6.67;;;;;;;18.94;84.61;100106.16;2937732;81;20124;-70
2021/09/25 03:49:08;;;;;;;6.42;5.50;;;;;;;18.97;84.56;100103.62;2938338;81;21033;-70
2021/09/25 03:53:10;;;;;;;14.07;6.90;;;;;;;19.02;84.38;100109.81;2897772;81;21013;-70
2021/09/25 03:57:14;;;;;;;6.53;5.83;;;;;;;19.06;84.33;100105.72;2901846;81;20981;-70
2021/09/25 04:01:21;;;;;;;9.98;6.33;;;;;;;19.07;84.24;100111.46;2944543;80;21480;-70
2021/09/25 04:05:25;;;;;;;13.65;6.90;;;;;;;19.05;84.15;100112.13;2963552;79;21024;-71
2021/09/25 04:09:30;;;;;;;7.70;6.20;;;;;;;19.01;84.26;100112.18;2942096;81;21068;-71
2021/09/25 04:13:32;;;;;;;8.80;6.03;;;;;;;18.98;84.43;100106.14;2946847;80;21849;-70
2021/09/25 04:17:54;;;;;;;9.08;5.92;;;;;;;18.92;84.55;100104.17;2940591;81;21031;-70
2021/09/25 04:21:58;;;;;;;8.35;6.05;;;;;;;18.89;84.80;100107.23;2938868;81;20989;-71
2021/09/25 04:26:09;;;;;;;7.45;6.08;;;;;;;18.89;84.89;100109.08;2958308;80;21014;-72
2021/09/25 04:30:12;;;;;;;6.80;5.30;;;;;;;18.87;84.93;100107.09;2982087;80;21204;-71
2021/09/25 04:34:23;;;;;;;6.67;4.72;;;;;;;18.87;84.95;100109.28;2981497;79;21050;-70
2021/09/25 04:38:25;;;;;;;7.03;5.20;;;;;;;18.88;85.03;100111.45;2949257;79;20993;-72
2021/09/25 04:42:26;;;;;;;8.00;5.37;;;;;;;18.89;85.02;100113.98;2946863;80;20997;-70
2021/09/25 04:46:28;;;;;;;7.10;5.83;;;;;;;18.88;85.04;100115.00;2949705;80;21012;-70
2021/09/25 04:50:30;;;;;;;7.45;5.58;;;;;;;18.87;84.97;100120.06;2982609;78;20959;-73
2021/09/25 04:54:32;;;;;;;7.40;5.37;;;;;;;18.88;85.11;100118.19;2982237;78;21026;-70
2021/09/25 04:58:37;;;;;;;6.75;4.47;;;;;;;18.90;85.07;100121.53;2973958;78;21012;-70
2021/09/25 05:02:47;;;;;;;10.90;5.05;;;;;;;18.94;84.83;100127.72;2948739;80;21001;-69
2021/09/25 05:06:49;;;;;;;6.30;5.20;;;;;;;18.95;84.80;100130.74;2951964;80;20977;-70
2021/09/25 05:10:51;;;;;;;6.42;5.30;;;;;;;18.97;84.67;100134.61;2952045;80;20992;-70
2021/09/25 05:14:52;;;;;;;8.20;4.87;;;;;;;18.98;84.75;100128.20;2951998;80;20993;-70
2021/09/25 05:18:54;;;;;;;7.30;4.58;;;;;;;18.99;84.68;100133.95;2952104;80;21029;-69
2021/09/25 05:23:01;;;;;;;7.53;4.25;;;;;;;19.01;84.57;100136.44;2951950;80;20977;-70
2021/09/25 05:27:04;;;;;;;4.83;4.17;;;;;;;19.01;84.66;100132.39;2951857;80;21029;-69
2021/09/25 05:31:25;;;;;;;7.20;5.20;;;;;;;19.06;84.51;100129.97;2951942;80;20985;-69
2021/09/25 05:35:27;;;;;;;6.85;4.70;;;;;;;19.09;84.41;100143.92;2951821;80;21047;-69
2021/09/25 05:39:29;;;;;;;10.78;5.15;;;;;;;19.13;84.18;100140.36;2952164;80;20941;-69
2021/09/25 05:43:31;;;;;;;6.95;4.53;;;;;;;19.17;84.07;100138.14;2952249;80;21084;-69
2021/09/25 05:47:33;;;;;;;4.62;3.55;;;;;;;19.18;84.05;100151.41;2951999;80;21661;-69
2021/09/25 05:51:35;;;;;;;7.42;4.90;;;;;;;19.20;83.66;100156.63;2951814;80;20977;-69
2021/09/25 05:55:37;;;;;;;10.28;4.75;;;;;;;19.20;83.93;100149.36;2951987;79;20961;-69
2021/09/25 05:59:39;;;;;;;4.90;4.05;;;;;;;19.23;83.84;100151.69;2952319;80;20977;-69
2021/09/25 06:03:41;;;;;;;5.40;4.42;;;;;;;19.30;83.53;100147.73;2920660;80;21410;-69
2021/09/25 06:07:43;;;;;;;6.12;5.58;;;;;;;19.35;83.55;100149.88;2916399;81;21009;-69
2021/09/25 06:12:07;;;;;;;4.90;4.35;;;;;;;19.37;83.53;100151.38;2915809;81;20989;-69
2021/09/25 06:16:09;;;;;;;4.00;3.58;;;;;;;19.39;83.34;100153.87;2916392;80;20985;-69
2021/09/25 06:20:26;;;;;;;6.12;4.35;;;;;;;19.41;83.03;100162.11;2915869;80;21324;-69
2021/09/25 06:24:29;;;;;;;5.67;5.15;;;;;;;19.44;83.10;100164.92;2916309;81;21025;-69
2021/09/25 06:28:31;;;;;;;5.75;4.80;;;;;;;19.51;83.05;100169.06;2916242;81;21520;-70
2021/09/25 06:32:32;;;;;;;5.87;4.50;;;;;;;19.55;82.94;100171.20;2916173;80;21040;-70
2021/09/25 06:36:40;;;;;;;6.85;3.92;;;;;;;19.59;83.14;100174.88;2915987;80;20946;-70
2021/09/25 06:40:43;;;;;;;4.53;4.10;;;;;;;19.63;82.74;100176.16;2914136;81;21013;-70
2021/09/25 06:44:45;;;;;;;4.90;4.40;;;;;;;19.66;82.27;100171.77;2916137;81;21002;-70
2021/09/25 06:48:49;;;;;;;5.28;4.78;;;;;;;19.69;82.28;100172.73;2916368;81;20966;-70
2021/09/25 06:52:50;;;;;;;4.55;2.95;;;;;;;19.72;81.91;100176.39;2916140;81;20986;-69
2021/09/25 06:56:51;;;;;;;4.90;3.25;;;;;;;19.72;81.91;100179.59;2916500;81;20982;-69
2021/09/25 07:00:58;;;;;;;4.45;3.55;;;;;;;19.71;81.61;100185.52;2919158;80;21044;-70
2021/09/25 07:05:00;;;;;;;3.72;3.35;;;;;;;19.73;81.65;100180.77;2939418;81;20942;-70
2021/09/25 07:09:27;;;;;;;8.80;3.37;;;;;;;19.74;81.83;100182.94;2939039;80;21248;-70
2021/09/25 07:13:29;;;;;;;6.17;3.20;;;;;;;19.78;81.36;100186.42;2939143;81;21545;-70
2021/09/25 07:17:32;;;;;;;5.92;3.70;;;;;;;19.81;81.40;100186.05;2939156;80;21028;-70
2021/09/25 07:21:45;;;;;;;4.97;3.45;;;;;;;19.88;80.98;100189.35;2939259;80;21005;-70
2021/09/25 07:25:47;;;;;;;3.45;3.15;;;;;;;19.94;80.72;100194.02;2939203;81;20950;-69
2021/09/25 07:29:53;;;;;;;4.35;3.70;;;;;;;19.99;80.43;100199.67;2939138;81;20957;-69
2021/09/25 07:33:55;;;;;;;4.20;3.15;;;;;;;20.03;80.13;100196.91;2939147;81;20997;-69
2021/09/25 07:38:04;;;;;;;4.62;3.95;;;;;;;20.05;80.07;100204.33;2938549;80;20949;-70
2021/09/25 07:42:07;;;;;;;3.62;3.33;;;;;;;20.09;79.89;100198.87;2938725;80;20965;-69
2021/09/25 07:46:08;;;;;;;8.00;3.17;;;;;;;20.20;80.21;100198.03;2939195;80;20997;-70
2021/09/25 07:50:33;;;;;;;4.17;2.98;;;;;;;20.34;79.31;100190.39;2938830;81;20961;-69
2021/09/25 07:54:35;;;;;;;4.60;4.20;;;;;;;20.44;79.39;100191.92;2938542;81;21009;-70
2021/09/25 07:58:38;;;;;;;3.98;3.62;;;;;;;20.58;78.59;100196.42;2938906;80;21024;-70
2021/09/25 08:02:45;;;;;;;6.20;4.60;;;;;;;20.68;78.22;100199.65;2927510;81;20974;-70
2021/09/25 08:06:47;;;;;;;7.05;3.85;;;;;;;20.82;77.24;100202.47;2916076;81;20994;-69
2021/09/25 08:10:49;;;;;;;4.28;3.70;;;;;;;20.91;77.15;100202.66;2916121;81;20970;-70
2021/09/25 08:14:51;;;;;;;3.95;3.17;;;;;;;21.00;77.01;100207.91;2916110;80;21507;-70
2021/09/25 08:18:53;;;;;;;5.00;4.20;;;;;;;21.09;76.20;100202.69;2916051;81;21005;-70
2021/09/25 08:22:56;;;;;;;4.58;2.55;;;;;;;21.16;76.83;100198.15;2916361;81;20946;-70
2021/09/25 08:26:59;;;;;;;4.92;3.70;;;;;;;21.32;75.58;100201.59;2894608;81;33278;-70
2021/09/25 08:31:01;;;;;;;7.15;3.90;;;;;;;21.42;75.43;100203.42;2916314;81;21009;-70
2021/09/25 08:35:11;;;;;;;5.47;3.95;;;;;;;21.61;74.87;100211.31;2915906;81;21032;-70
2021/09/25 08:39:14;;;;;;;6.35;2.98;;;;;;;21.72;74.26;100205.06;2916227;81;20983;-70
2021/09/25 08:43:16;;;;;;;4.97;3.95;;;;;;;21.77;72.69;100202.04;2915849;81;20954;-70
2021/09/25 08:47:36;;;;;;;9.88;3.58;;;;;;;21.87;72.18;100213.03;2916186;81;21001;-69
2021/09/25 08:51:38;;;;;;;7.65;4.12;;;;;;;21.86;71.79;100220.84;2916125;81;21017;-69
2021/09/25 08:55:40;;;;;;;6.30;4.55;;;;;;;21.86;72.32;100220.30;2916235;81;20950;-70
2021/09/25 08:59:42;;;;;;;4.60;3.25;;;;;;;21.96;72.34;100220.77;2915705;81;21263;-70
2021/09/25 09:03:55;;;;;;;5.72;3.60;;;;;;;22.04;71.52;100225.67;2925100;81;21286;-69
2021/09/25 09:08:01;;;;;;;5.85;4.65;;;;;;;22.10;71.90;100232.47;2929579;81;20985;-69
2021/09/25 09:12:04;;;;;;;4.55;3.33;;;;;;;22.18;71.72;100230.11;2929727;80;21025;-69
2021/09/25 09:16:09;;;;;;;4.30;3.67;;;;;;;22.26;70.88;100215.55;2929813;81;20954;-69
2021/09/25 09:20:18;;;;;;;5.97;3.80;;;;;;;22.31;71.37;100233.37;2929360;81;21029;-70
2021/09/25 09:24:20;;;;;;;7.35;4.78;;;;;;;22.35;71.05;100225.13;2929576;81;21009;-70
2021/09/25 09:28:47;;;;;;;5.40;4.00;;;;;;;22.48;70.85;100234.38;2929458;81;20970;-69
2021/09/25 09:32:49;;;;;;;7.08;4.40;;;;;;;22.55;70.50;100227.07;2929821;81;21037;-70
2021/09/25 09:36:52;;;;;;;7.62;5.72;;;;;;;22.59;70.00;100230.22;2929332;80;20945;-70
2021/09/25 09:40:56;;;;;;;5.42;4.83;;;;;;;22.65;70.59;100231.58;2930148;80;21012;-69
2021/09/25 09:45:31;;;;;;;15.15;5.25;;;;;;;22.69;70.03;100236.05;2929723;81;20997;-69
2021/09/25 09:49:36;;;;;;;5.60;4.40;;;;;;;22.74;69.93;100238.14;2930001;81;21053;-69
2021/09/25 09:54:24;;;;;;;19.40;6.47;;;;;;;22.81;69.76;100243.07;2930052;81;20977;-69
2021/09/25 09:58:30;;;;;;;6.70;5.45;;;;;;;22.82;68.62;100232.53;2929367;80;20958;-70
2021/09/25 10:02:39;;;;;;;6.67;4.95;;;;;;;22.80;68.99;100245.47;2929537;80;20974;-69
2021/09/25 10:06:42;;;;;;;12.55;6.35;;;;;;;22.86;69.11;100248.69;2929958;81;20977;-70
2021/09/25 10:11:14;;;;;;;8.65;4.78;;;;;;;22.93;68.78;100252.23;2929980;81;20973;-70
2021/09/25 10:15:17;;;;;;;8.50;5.65;;;;;;;22.96;68.57;100261.30;2930067;81;21021;-70
2021/09/25 10:19:26;;;;;;;6.08;5.20;;;;;;;23.07;69.02;100248.17;2925282;81;21005;-70
2021/09/25 10:23:28;;;;;;;6.65;4.90;;;;;;;23.15;68.96;100256.08;2929819;80;20989;-70
2021/09/25 10:27:45;;;;;;;7.12;4.42;;;;;;;23.18;68.31;100250.23;2930112;81;21025;-70
2021/09/25 10:31:48;;;;;;;5.75;4.35;;;;;;;23.26;67.92;100246.50;2930087;81;21028;-70
2021/09/25 10:35:56;;;;;;;6.85;4.97;;;;;;;23.28;68.18;100253.90;2929821;81;20962;-70
2021/09/25 10:39:58;;;;;;;5.10;4.25;;;;;;;23.30;67.51;100248.27;2929902;81;20965;-70
2021/09/25 10:44:00;;;;;;;5.92;4.33;;;;;;;23.40;68.61;100247.33;2919729;80;20990;-70
2021/09/25 10:48:23;;;;;;;5.78;4.97;;;;;;;23.51;67.78;100256.16;2899849;81;20930;-70
2021/09/25 10:52:52;;;;;;;8.33;4.33;;;;;;;23.62;67.17;100253.86;2900107;82;20986;-70
2021/09/25 10:56:57;;;;;;;6.90;5.08;;;;;;;23.70;66.49;100249.53;2900381;81;20985;-70
2021/09/25 11:01:10;;;;;;;5.60;4.87;;;;;;;23.75;66.54;100251.08;2900216;81;21005;-69
2021/09/25 11:05:17;;;;;;;10.58;5.03;;;;;;;23.83;66.40;100256.80;2901823;80;20993;-69
2021/09/25 11:09:33;;;;;;;5.92;4.22;;;;;;;23.73;66.52;100265.39;2900289;82;20954;-69
2021/09/25 11:14:05;;;;;;;6.92;4.50;;;;;;;23.60;66.12;100262.20;2893901;81;20970;-70
2021/09/25 11:18:27;;;;;;;6.08;3.52;;;;;;;23.37;66.32;100262.66;2900256;82;20981;-70
2021/09/25 11:22:35;;;;;;;5.17;3.70;;;;;;;23.01;67.09;100276.14;2900336;81;20981;-70
2021/09/25 11:26:39;;;;;;;7.17;4.03;;;;;;;22.74;67.67;100267.46;2899849;82;21013;-70
2021/09/25 11:30:43;;;;;;;6.78;3.27;;;;;;;22.59;68.78;100271.69;2900190;81;20997;-69
2021/09/25 11:34:45;;;;;;;4.08;3.08;;;;;;;22.48;68.61;100280.44;2874353;82;21033;-70
2021/09/25 11:38:47;;;;;;;3.92;2.83;;;;;;;22.50;68.97;100278.36;2915103;81;20977;-69
2021/09/25 11:42:49;;;;;;;2.92;2.60;;;;;;;22.47;69.00;100280.13;2900075;82;20985;-69
2021/09/25 11:46:50;;;;;;;4.40;4.00;;;;;;;22.53;69.71;100273.88;2900225;82;21076;-70
2021/09/25 11:50:55;;;;;;;17.85;4.03;;;;;;;22.65;69.17;100276.31;2899985;82;20974;-70
2021/09/25 11:54:57;;;;;;;5.45;3.87;;;;;;;22.73;69.30;100275.28;2899992;81;20970;-70
2021/09/25 11:59:00;;;;;;;6.28;3.92;;;;;;;22.79;69.19;100269.02;2900007;82;20978;-70
2021/09/25 12:03:19;;;;;;;7.28;4.15;;;;;;;22.78;68.78;100270.58;2901700;81;21029;-70
2021/09/25 12:07:26;;;;;;;3.25;2.85;;;;;;;22.79;69.31;100266.81;2907616;81;20985;-70
2021/09/25 12:11:28;;;;;;;4.12;3.67;;;;;;;22.77;68.41;100264.33;2908382;81;21013;-70
2021/09/25 12:15:36;;;;;;;8.20;4.65;;;;;;;22.82;69.51;100261.00;2907717;80;20983;-70
2021/09/25 12:19:38;;;;;;;17.07;5.25;;;;;;;22.85;68.86;100270.08;2907589;81;20957;-70
2021/09/25 12:23:43;;;;;;;8.60;5.22;;;;;;;22.75;69.05;100266.92;2907660;81;20988;-70
2021/09/25 12:28:00;;;;;;;4.25;3.83;;;;;;;22.69;69.54;100275.36;2907894;81;21016;-70
2021/09/25 12:32:04;;;;;;;3.75;3.33;;;;;;;22.64;69.51;100277.36;2908053;81;20996;-70
2021/09/25 12:36:10;;;;;;;3.90;3.35;;;;;;;22.56;69.39;100279.42;2907833;81;20984;-70
2021/09/25 12:40:12;;;;;;;4.80;4.30;;;;;;;22.44;69.63;100281.87;2908165;81;20949;-70
2021/09/25 12:44:20;;;;;;;5.87;3.75;;;;;;;22.43;70.62;100286.44;2907884;82;20981;-70
2021/09/25 12:48:22;;;;;;;4.28;3.62;;;;;;;22.46;70.79;100285.20;2907897;82;21036;-69
2021/09/25 12:52:27;;;;;;;8.38;6.87;;;;;;;22.38;69.68;100284.33;2908205;82;21008;-70
2021/09/25 12:56:35;;;;;;;;;;;;;;;22.25;70.23;100286.48;2914547;81;20993;-70
2021/09/25 13:00:40;;;;;;;8.10;3.90;;;;;;;22.11;70.57;100287.50;2914402;81;20097;-70
2021/09/25 13:05:05;;;;;;;6.37;4.37;;;;;;;22.05;70.47;100285.58;2898962;81;21052;-70
2021/09/25 13:09:07;;;;;;;4.95;4.25;;;;;;;22.04;70.68;100282.55;2927035;80;20945;-70
2021/09/25 13:13:17;;;;;;;7.80;4.12;;;;;;;22.09;71.29;100283.63;2926656;80;21039;-70
2021/09/25 13:17:19;;;;;;;6.05;5.45;;;;;;;22.17;71.60;100287.19;2926726;81;20945;-70
2021/09/25 13:21:21;;;;;;;6.47;5.80;;;;;;;22.43;70.31;100282.91;2926935;80;21015;-70
2021/09/25 13:25:25;;;;;;;11.12;6.00;;;;;;;22.53;70.57;100280.66;2926754;81;21015;-70
2021/09/25 13:29:27;;;;;;;6.33;4.55;;;;;;;22.67;70.48;100276.94;2926891;80;20992;-70
2021/09/25 13:33:29;;;;;;;4.08;3.33;;;;;;;22.80;70.71;100282.08;2926431;81;21004;-70
2021/09/25 13:37:31;;;;;;;7.60;4.53;;;;;;;22.84;69.40;100279.25;2926579;80;20979;-70
2021/09/25 13:41:39;;;;;;;8.65;4.70;;;;;;;22.87;68.61;100282.91;2926611;81;21303;-70
2021/09/25 13:45:41;;;;;;;7.33;6.42;;;;;;;22.92;68.52;100286.36;2926379;81;20984;-70
2021/09/25 13:49:43;;;;;;;9.43;4.75;;;;;;;22.98;69.36;100282.80;2926402;81;21008;-70
2021/09/25 13:54:06;;;;;;;3.72;3.37;;;;;;;23.07;69.37;100284.79;2926464;81;20968;-70
2021/09/25 13:58:08;;;;;;;5.10;3.55;;;;;;;23.08;68.53;100281.84;2926668;80;21017;-70
2021/09/25 14:02:11;;;;;;;3.92;3.52;;;;;;;23.03;68.90;100295.21;2926661;81;21008;-70
2021/09/25 14:06:13;;;;;;;3.87;3.52;;;;;;;23.03;68.34;100290.33;2909480;81;20981;-70
2021/09/25 14:10:15;;;;;;;5.65;3.92;;;;;;;23.03;68.30;100297.11;2908003;80;21002;-70
2021/09/25 14:14:18;;;;;;;12.13;3.95;;;;;;;23.01;68.81;100298.66;2907938;81;20949;-70
2021/09/25 14:18:20;;;;;;;5.35;4.80;;;;;;;23.00;69.53;100301.59;2907941;81;21016;-70
2021/09/25 14:22:22;;;;;;;5.30;4.37;;;;;;;22.98;69.41;100296.36;2908071;82;20965;-70
2021/09/25 14:26:38;;;;;;;3.65;3.15;;;;;;;22.97;69.88;100306.36;2908380;82;21028;-70
2021/09/25 14:30:40;;;;;;;9.30;4.75;;;;;;;22.95;69.53;100306.28;2907970;81;20978;-70
2021/09/25 14:34:42;;;;;;;5.62;4.17;;;;;;;22.92;69.60;100306.16;2908026;82;20977;-70
2021/09/25 14:38:44;;;;;;;7.30;4.03;;;;;;;22.89;69.70;100303.86;2907979;82;21024;-70
2021/09/25 14:42:46;;;;;;;7.45;4.45;;;;;;;22.87;70.28;100303.75;2908213;81;20981;-70
2021/09/25 14:47:00;;;;;;;5.40;4.25;;;;;;;22.83;69.92;100303.34;2908194;82;21056;-69
2021/09/25 14:51:03;;;;;;;5.00;4.53;;;;;;;22.82;70.34;100308.45;2908380;81;20974;-70
2021/09/25 14:55:16;;;;;;;4.83;4.33;;;;;;;22.85;70.51;100315.33;2907773;81;21040;-70
2021/09/25 14:59:18;;;;;;;9.33;4.45;;;;;;;22.83;70.70;100305.52;2907808;81;20973;-70
2021/09/25 15:03:20;;;;;;;5.00;4.37;;;;;;;22.86;70.83;100311.06;2907443;81;21009;-70
2021/09/25 15:07:34;;;;;;;6.40;4.92;;;;;;;22.90;70.70;100308.25;2907943;81;21021;-70
2021/09/25 15:11:37;;;;;;;6.72;5.58;;;;;;;22.90;70.70;100308.25;2907898;82;20997;-70
2021/09/25 15:15:39;;;;;;;7.55;6.12;;;;;;;22.86;71.01;100307.00;2907958;80;20965;-70
2021/09/25 15:19:41;;;;;;;8.65;4.62;;;;;;;22.83;71.19;100310.12;2908107;80;20993;-70
2021/09/25 15:23:43;;;;;;;7.65;4.92;;;;;;;22.76;71.32;100312.83;2908040;80;20984;-70
2021/09/25 15:28:04;;;;;;;7.12;4.83;;;;;;;22.71;71.44;100312.61;2907504;82;21242;-70
2021/09/25 15:32:14;;;;;;;6.62;5.53;;;;;;;22.71;71.68;100311.77;2908225;81;20985;-70
2021/09/25 15:36:16;;;;;;;8.23;6.05;;;;;;;22.64;71.82;100316.66;2908031;80;21071;-71
2021/09/25 15:40:18;;;;;;;5.55;5.05;;;;;;;22.63;72.40;100315.50;2907967;81;22213;-70
2021/09/25 15:44:21;;;;;;;7.90;5.33;;;;;;;22.61;72.86;100323.00;2915110;80;20950;-70
2021/09/25 15:48:27;;;;;;;10.30;4.85;;;;;;;22.51;73.37;100314.76;2916398;81;20966;-69
2021/09/25 15:52:29;;;;;;;9.43;5.85;;;;;;;22.43;74.11;100319.49;2916286;81;21029;-70
2021/09/25 15:56:32;;;;;;;7.67;5.92;;;;;;;22.37;73.93;100327.91;2916379;81;20997;-70
2021/09/25 17:30:52;;;;;;;11.50;8.05;;;;;;;21.99;77.26;100387.94;2928064;80;21089;-69
2021/09/25 17:34:54;;;;;;;11.60;8.55;;;;;;;22.08;77.54;100392.15;2779267;83;21002;-73
2021/09/25 17:38:57;;;;;;;16.57;10.58;;;;;;;22.01;77.64;100388.08;2780196;83;21108;-71
2021/09/25 17:42:59;;;;;;;17.75;12.05;;;;;;;21.87;78.37;100394.44;2780237;83;21010;-72
2021/09/25 17:47:01;;;;;;;24.87;12.13;;;;;;;21.87;78.40;100396.61;2773388;83;21049;-70
2021/09/25 17:51:11;;;;;;;12.82;9.38;;;;;;;21.89;78.42;100404.01;2778299;83;21045;-70
2021/09/25 17:55:12;;;;;;;18.23;10.35;;;;;;;21.85;78.34;100396.50;2779003;83;21076;-72
2021/09/25 17:59:14;;;;;;;19.32;12.95;;;;;;;21.83;78.72;100398.05;2780337;83;21488;-72
2021/09/25 18:03:16;;;;;;;28.87;17.45;;;;;;;21.80;78.65;100401.15;2777806;83;21092;-71
2021/09/25 18:07:18;;;;;;;53.28;30.25;;;;;;;21.75;78.92;100396.31;2779350;83;21001;-71
2021/09/25 18:11:20;;;;;;;52.10;35.83;;;;;;;21.64;79.25;100403.08;2779623;83;21069;-71
2021/09/25 18:15:22;;;;;;;52.62;36.42;;;;;;;21.61;79.52;100405.33;2780010;83;21303;-71
2021/09/25 18:19:25;;;;;;;52.13;34.20;;;;;;;21.55;80.11;100402.91;2743990;81;21510;-69
2021/09/25 18:23:27;;;;;;;50.85;34.60;;;;;;;21.54;80.24;100399.89;2708882;85;21040;-69
2021/09/25 18:27:29;;;;;;;51.28;33.30;;;;;;;21.54;80.26;100402.59;2777794;81;70378;-69
2021/09/25 18:31:31;;;;;;;52.75;33.33;;;;;;;21.55;79.98;100404.27;2768405;85;21042;-70
2021/09/25 18:35:34;;;;;;;51.65;27.45;;;;;;;21.52;80.28;100406.84;2785837;84;21036;-69
2021/09/25 18:39:35;;;;;;;33.58;21.87;;;;;;;21.53;80.33;100410.39;2783136;84;20968;-69
2021/09/25 18:43:38;;;;;;;46.28;27.13;;;;;;;21.48;80.54;100414.18;2750302;86;21010;-70
2021/09/25 18:47:41;;;;;;;71.47;45.80;;;;;;;21.34;80.79;100424.05;2759997;83;21013;-71
2021/09/25 18:51:43;;;;;;;53.00;37.90;;;;;;;21.14;80.86;100424.70;2796205;83;21078;-70
2021/09/25 18:55:45;;;;;;;61.15;36.90;;;;;;;21.06;81.27;100422.95;2796227;83;20979;-71
2021/09/25 18:59:54;;;;;;;55.10;37.00;;;;;;;21.08;81.46;100428.17;2794073;85;21081;-71
2021/09/25 19:03:57;;;;;;;53.92;31.27;;;;;;;21.19;81.47;100432.23;2815810;84;21033;-70
2021/09/25 19:07:59;;;;;;;46.15;27.32;;;;;;;21.25;80.96;100433.66;2796435;83;21043;-71
2021/09/25 19:12:24;;;;;;;35.45;22.67;;;;;;;21.28;80.93;100435.12;2766416;86;21014;-71
2021/09/25 19:16:29;;;;;;;26.33;18.85;;;;;;;21.31;80.55;100440.14;2765908;85;21173;-71
2021/09/25 19:20:37;;;;;;;26.35;17.57;;;;;;;21.34;80.86;100445.70;2766183;86;21010;-68
2021/09/25 19:24:45;;;;;;;31.42;20.30;;;;;;;21.29;80.89;100446.27;2765809;86;21428;-70
2021/09/25 19:28:47;;;;;;;30.50;19.90;;;;;;;21.25;81.12;100442.28;2742453;85;21039;-70
2021/09/25 19:32:49;;;;;;;23.52;16.87;;;;;;;21.23;81.21;100446.55;2786343;85;21023;-69
2021/09/25 19:37:13;;;;;;;16.17;13.95;;;;;;;21.19;81.44;100446.58;2787093;85;21015;-70
2021/09/25 19:41:16;;;;;;;23.00;14.03;;;;;;;21.17;81.48;100445.94;2761432;85;21095;-72
2021/09/25 19:45:23;;;;;;;17.62;13.32;;;;;;;21.15;81.55;100452.59;2722332;86;21076;-69
2021/09/25 19:49:25;;;;;;;19.10;13.80;;;;;;;21.20;81.38;100453.66;2741994;85;21164;-70
2021/09/25 19:53:27;;;;;;;19.42;12.85;;;;;;;21.22;81.16;100452.98;2741888;87;21059;-71
2021/09/25 19:58:07;;;;;;;26.52;18.05;;;;;;;21.26;80.95;100452.92;2741675;87;21381;-69
2021/09/25 20:02:11;;;;;;;33.08;22.10;;;;;;;21.31;80.97;100448.79;2741612;86;21726;-68
2021/09/25 20:06:15;;;;;;;27.73;20.30;;;;;;;21.33;80.90;100451.64;2741953;87;21007;-69
2021/09/25 20:10:17;;;;;;;33.73;22.50;;;;;;;21.32;81.06;100453.17;2741756;87;21047;-68
2021/09/25 20:14:19;;;;;;;25.05;17.52;;;;;;;21.24;81.60;100459.04;2741252;87;20995;-69
2021/09/25 20:18:20;;;;;;;35.92;19.40;;;;;;;21.05;81.85;100456.42;2741619;87;21066;-68
2021/09/25 20:22:22;;;;;;;37.25;21.00;;;;;;;21.05;82.59;100459.13;2741810;87;21077;-68
2021/09/25 20:26:24;;;;;;;41.23;19.40;;;;;;;21.07;82.43;100467.06;2751266;86;21320;-69
2021/09/25 20:30:27;;;;;;;24.60;16.37;;;;;;;21.04;82.46;100470.16;2773674;86;21348;-69